Terminal Aerodrome Forecast
Issued by NWS

Home | Current Version | Previous Version | Text Only | Print | Product List | Glossary Off
Versions: 1 2 3 4 5 6 7 8 9 10 11 12 13 14 15 16

000
FTUS43 KABR 171600 AAA
TAFMBG
TAF AMD
KMBG 171601Z 1716/1812 28005KT P6SM VCSH FEW012 SCT070 BKN200
      TEMPO 1716/1718 4SM -SHRA BR BKN025 OVC050
     FM171800 14006KT P6SM SCT020 BKN040
     FM180000 18006KT P6SM VCTS BKN040CB
     FM180400 32006KT P6SM SKC=

USA.gov is the U.S. government's official web portal to all federal, state and local government web resources and services.